sensor_id;sensor_type;location;lat;lon;timestamp;P1;durP1;ratioP1;P2;durP2;ratioP2
5060;SDS011;2549;52.128;21.068;2023-04-25T00:01:40;14.00;;;7.30;;
5060;SDS011;2549;52.128;21.068;2023-04-25T00:04:07;15.70;;;8.00;;
5060;SDS011;2549;52.128;21.068;2023-04-25T00:06:34;10.10;;;7.10;;
5060;SDS011;2549;52.128;21.068;2023-04-25T00:09:03;11.30;;;7.90;;
5060;SDS011;2549;52.128;21.068;2023-04-25T00:11:33;11.53;;;8.10;;
5060;SDS011;2549;52.128;21.068;2023-04-25T00:14:00;10.70;;;8.13;;
5060;SDS011;2549;52.128;21.068;2023-04-25T00:16:28;10.30;;;7.60;;
5060;SDS011;2549;52.128;21.068;2023-04-25T00:18:59;11.27;;;8.63;;
5060;SDS011;2549;52.128;21.068;2023-04-25T00:21:28;14.33;;;9.17;;
5060;SDS011;2549;52.128;21.068;2023-04-25T00:23:55;8.93;;;8.03;;
5060;SDS011;2549;52.128;21.068;2023-04-25T00:26:22;14.87;;;8.33;;
5060;SDS011;2549;52.128;21.068;2023-04-25T00:28:49;16.00;;;8.20;;
5060;SDS011;2549;52.128;21.068;2023-04-25T00:31:16;15.10;;;8.00;;
5060;SDS011;2549;52.128;21.068;2023-04-25T00:33:42;10.30;;;8.20;;
5060;SDS011;2549;52.128;21.068;2023-04-25T00:36:09;16.60;;;8.37;;
5060;SDS011;2549;52.128;21.068;2023-04-25T00:38:36;19.73;;;8.33;;
5060;SDS011;2549;52.128;21.068;2023-04-25T00:41:05;16.83;;;9.90;;
5060;SDS011;2549;52.128;21.068;2023-04-25T00:43:33;11.03;;;9.23;;
5060;SDS011;2549;52.128;21.068;2023-04-25T00:46:02;15.97;;;9.90;;
5060;SDS011;2549;52.128;21.068;2023-04-25T00:48:29;12.97;;;9.30;;
5060;SDS011;2549;52.128;21.068;2023-04-25T00:50:59;13.77;;;8.60;;
5060;SDS011;2549;52.128;21.068;2023-04-25T00:53:27;11.03;;;8.23;;
5060;SDS011;2549;52.128;21.068;2023-04-25T00:55:57;12.77;;;8.07;;
5060;SDS011;2549;52.128;21.068;2023-04-25T00:58:25;9.23;;;8.00;;
5060;SDS011;2549;52.128;21.068;2023-04-25T01:00:52;12.23;;;8.03;;
5060;SDS011;2549;52.128;21.068;2023-04-25T01:03:19;13.00;;;8.50;;
5060;SDS011;2549;52.128;21.068;2023-04-25T01:05:46;12.87;;;8.47;;
5060;SDS011;2549;52.128;21.068;2023-04-25T01:08:14;10.27;;;8.03;;
5060;SDS011;2549;52.128;21.068;2023-04-25T01:10:41;11.47;;;7.43;;
5060;SDS011;2549;52.128;21.068;2023-04-25T01:13:08;9.87;;;7.60;;
5060;SDS011;2549;52.128;21.068;2023-04-25T01:15:35;10.20;;;8.73;;
5060;SDS011;2549;52.128;21.068;2023-04-25T01:18:02;12.10;;;8.10;;
5060;SDS011;2549;52.128;21.068;2023-04-25T01:20:32;8.87;;;7.70;;
5060;SDS011;2549;52.128;21.068;2023-04-25T01:22:59;10.60;;;7.40;;
5060;SDS011;2549;52.128;21.068;2023-04-25T01:25:29;9.20;;;8.03;;
5060;SDS011;2549;52.128;21.068;2023-04-25T01:27:57;11.27;;;8.57;;
5060;SDS011;2549;52.128;21.068;2023-04-25T01:30:27;9.80;;;7.83;;
5060;SDS011;2549;52.128;21.068;2023-04-25T01:32:56;16.70;;;8.30;;
5060;SDS011;2549;52.128;21.068;2023-04-25T01:35:23;9.70;;;7.73;;
5060;SDS011;2549;52.128;21.068;2023-04-25T01:37:51;10.23;;;7.70;;
5060;SDS011;2549;52.128;21.068;2023-04-25T01:40:18;15.37;;;8.20;;
5060;SDS011;2549;52.128;21.068;2023-04-25T01:42:47;10.67;;;8.30;;
5060;SDS011;2549;52.128;21.068;2023-04-25T01:45:13;12.57;;;9.63;;
5060;SDS011;2549;52.128;21.068;2023-04-25T01:47:40;25.17;;;9.00;;
5060;SDS011;2549;52.128;21.068;2023-04-25T01:50:10;13.03;;;7.77;;
5060;SDS011;2549;52.128;21.068;2023-04-25T01:52:37;10.40;;;8.10;;
5060;SDS011;2549;52.128;21.068;2023-04-25T01:55:04;10.90;;;8.80;;
5060;SDS011;2549;52.128;21.068;2023-04-25T01:57:32;14.83;;;9.07;;
5060;SDS011;2549;52.128;21.068;2023-04-25T02:00:00;12.60;;;8.87;;
5060;SDS011;2549;52.128;21.068;2023-04-25T02:02:29;12.97;;;9.30;;
5060;SDS011;2549;52.128;21.068;2023-04-25T02:04:56;13.97;;;9.00;;
5060;SDS011;2549;52.128;21.068;2023-04-25T02:07:23;14.23;;;9.30;;
5060;SDS011;2549;52.128;21.068;2023-04-25T02:09:50;10.63;;;8.23;;
5060;SDS011;2549;52.128;21.068;2023-04-25T02:12:16;14.63;;;9.67;;
5060;SDS011;2549;52.128;21.068;2023-04-25T02:14:44;12.27;;;9.13;;
5060;SDS011;2549;52.128;21.068;2023-04-25T02:17:11;16.70;;;10.47;;
5060;SDS011;2549;52.128;21.068;2023-04-25T02:19:39;18.73;;;9.17;;
5060;SDS011;2549;52.128;21.068;2023-04-25T02:22:05;13.57;;;9.87;;
5060;SDS011;2549;52.128;21.068;2023-04-25T02:24:32;14.67;;;8.80;;
5060;SDS011;2549;52.128;21.068;2023-04-25T02:27:01;12.20;;;9.43;;
5060;SDS011;2549;52.128;21.068;2023-04-25T02:29:28;9.43;;;8.20;;
5060;SDS011;2549;52.128;21.068;2023-04-25T02:31:55;10.53;;;8.23;;
5060;SDS011;2549;52.128;21.068;2023-04-25T02:34:22;9.80;;;8.40;;
5060;SDS011;2549;52.128;21.068;2023-04-25T02:36:49;9.73;;;7.73;;
5060;SDS011;2549;52.128;21.068;2023-04-25T02:39:19;10.63;;;7.50;;
5060;SDS011;2549;52.128;21.068;2023-04-25T02:41:48;13.83;;;8.13;;
5060;SDS011;2549;52.128;21.068;2023-04-25T02:44:15;10.27;;;8.23;;
5060;SDS011;2549;52.128;21.068;2023-04-25T02:46:42;8.60;;;6.37;;
5060;SDS011;2549;52.128;21.068;2023-04-25T02:49:09;9.13;;;7.70;;
5060;SDS011;2549;52.128;21.068;2023-04-25T02:51:36;7.80;;;7.07;;
5060;SDS011;2549;52.128;21.068;2023-04-25T02:54:03;13.00;;;6.87;;
5060;SDS011;2549;52.128;21.068;2023-04-25T02:56:29;6.33;;;5.70;;
5060;SDS011;2549;52.128;21.068;2023-04-25T02:58:56;9.23;;;6.50;;
5060;SDS011;2549;52.128;21.068;2023-04-25T03:01:23;7.53;;;6.13;;
5060;SDS011;2549;52.128;21.068;2023-04-25T03:03:50;10.70;;;7.60;;
5060;SDS011;2549;52.128;21.068;2023-04-25T03:06:17;7.00;;;6.30;;
5060;SDS011;2549;52.128;21.068;2023-04-25T03:08:44;8.20;;;6.90;;
5060;SDS011;2549;52.128;21.068;2023-04-25T03:11:11;7.80;;;6.83;;
5060;SDS011;2549;52.128;21.068;2023-04-25T03:13:38;9.23;;;6.90;;
5060;SDS011;2549;52.128;21.068;2023-04-25T03:16:05;7.67;;;6.20;;
5060;SDS011;2549;52.128;21.068;2023-04-25T03:18:32;12.20;;;6.90;;
5060;SDS011;2549;52.128;21.068;2023-04-25T03:20:58;11.13;;;6.27;;
5060;SDS011;2549;52.128;21.068;2023-04-25T03:23:25;8.97;;;7.00;;
5060;SDS011;2549;52.128;21.068;2023-04-25T03:25:52;7.37;;;6.67;;
5060;SDS011;2549;52.128;21.068;2023-04-25T03:28:19;8.40;;;6.63;;
5060;SDS011;2549;52.128;21.068;2023-04-25T03:30:46;7.97;;;6.77;;
5060;SDS011;2549;52.128;21.068;2023-04-25T03:33:13;11.13;;;7.17;;
5060;SDS011;2549;52.128;21.068;2023-04-25T03:35:40;7.10;;;6.07;;
5060;SDS011;2549;52.128;21.068;2023-04-25T03:38:08;12.23;;;6.80;;
5060;SDS011;2549;52.128;21.068;2023-04-25T03:40:35;11.60;;;6.17;;
5060;SDS011;2549;52.128;21.068;2023-04-25T03:43:02;6.93;;;6.00;;
5060;SDS011;2549;52.128;21.068;2023-04-25T03:45:37;6.00;;;5.47;;
5060;SDS011;2549;52.128;21.068;2023-04-25T03:48:04;5.93;;;5.43;;
5060;SDS011;2549;52.128;21.068;2023-04-25T03:50:31;10.23;;;5.70;;
5060;SDS011;2549;52.128;21.068;2023-04-25T03:52:58;7.63;;;6.17;;
5060;SDS011;2549;52.128;21.068;2023-04-25T03:55:25;5.50;;;4.73;;
5060;SDS011;2549;52.128;21.068;2023-04-25T03:57:51;5.53;;;5.03;;
5060;SDS011;2549;52.128;21.068;2023-04-25T04:00:18;9.23;;;5.10;;
5060;SDS011;2549;52.128;21.068;2023-04-25T04:02:45;5.00;;;4.60;;
5060;SDS011;2549;52.128;21.068;2023-04-25T04:05:12;7.13;;;4.60;;
5060;SDS011;2549;52.128;21.068;2023-04-25T04:07:39;5.80;;;4.63;;
5060;SDS011;2549;52.128;21.068;2023-04-25T04:10:09;10.63;;;5.23;;
5060;SDS011;2549;52.128;21.068;2023-04-25T04:12:36;5.50;;;4.40;;
5060;SDS011;2549;52.128;21.068;2023-04-25T04:15:04;5.77;;;4.90;;
5060;SDS011;2549;52.128;21.068;2023-04-25T04:17:34;4.63;;;4.23;;
5060;SDS011;2549;52.128;21.068;2023-04-25T04:20:16;4.73;;;4.33;;
5060;SDS011;2549;52.128;21.068;2023-04-25T04:22:43;5.00;;;4.60;;
5060;SDS011;2549;52.128;21.068;2023-04-25T04:25:12;6.90;;;4.47;;
5060;SDS011;2549;52.128;21.068;2023-04-25T04:27:39;4.50;;;3.90;;
5060;SDS011;2549;52.128;21.068;2023-04-25T04:30:07;4.70;;;4.20;;
5060;SDS011;2549;52.128;21.068;2023-04-25T04:32:34;4.47;;;4.07;;
5060;SDS011;2549;52.128;21.068;2023-04-25T04:35:02;5.87;;;4.80;;
5060;SDS011;2549;52.128;21.068;2023-04-25T04:37:30;4.83;;;4.43;;
5060;SDS011;2549;52.128;21.068;2023-04-25T04:39:57;7.00;;;4.40;;
5060;SDS011;2549;52.128;21.068;2023-04-25T04:42:24;4.43;;;3.90;;
5060;SDS011;2549;52.128;21.068;2023-04-25T04:44:51;5.80;;;4.87;;
5060;SDS011;2549;52.128;21.068;2023-04-25T04:47:18;6.93;;;4.80;;
5060;SDS011;2549;52.128;21.068;2023-04-25T04:49:46;6.67;;;4.70;;
5060;SDS011;2549;52.128;21.068;2023-04-25T04:52:19;5.63;;;4.70;;
5060;SDS011;2549;52.128;21.068;2023-04-25T04:54:46;5.60;;;4.73;;
5060;SDS011;2549;52.128;21.068;2023-04-25T04:57:13;4.93;;;4.40;;
5060;SDS011;2549;52.128;21.068;2023-04-25T04:59:39;6.03;;;4.93;;
5060;SDS011;2549;52.128;21.068;2023-04-25T05:02:06;4.67;;;4.27;;
5060;SDS011;2549;52.128;21.068;2023-04-25T05:04:33;5.83;;;4.53;;
5060;SDS011;2549;52.128;21.068;2023-04-25T05:07:00;7.47;;;5.60;;
5060;SDS011;2549;52.128;21.068;2023-04-25T05:09:27;6.13;;;4.53;;
5060;SDS011;2549;52.128;21.068;2023-04-25T05:11:54;6.03;;;5.40;;
5060;SDS011;2549;52.128;21.068;2023-04-25T05:14:21;6.43;;;5.40;;
5060;SDS011;2549;52.128;21.068;2023-04-25T05:19:56;5.50;;;5.00;;
5060;SDS011;2549;52.128;21.068;2023-04-25T05:22:23;8.90;;;6.00;;
5060;SDS011;2549;52.128;21.068;2023-04-25T05:24:50;5.50;;;5.00;;
5060;SDS011;2549;52.128;21.068;2023-04-25T05:27:21;6.90;;;6.20;;
5060;SDS011;2549;52.128;21.068;2023-04-25T05:29:47;6.33;;;5.60;;
5060;SDS011;2549;52.128;21.068;2023-04-25T05:32:14;6.50;;;5.53;;
5060;SDS011;2549;52.128;21.068;2023-04-25T05:34:42;7.27;;;5.70;;
5060;SDS011;2549;52.128;21.068;2023-04-25T05:37:09;6.27;;;5.17;;
5060;SDS011;2549;52.128;21.068;2023-04-25T05:39:38;5.60;;;5.10;;
5060;SDS011;2549;52.128;21.068;2023-04-25T05:42:05;5.80;;;4.60;;
5060;SDS011;2549;52.128;21.068;2023-04-25T05:44:31;6.20;;;5.60;;
5060;SDS011;2549;52.128;21.068;2023-04-25T05:46:58;6.80;;;5.33;;
5060;SDS011;2549;52.128;21.068;2023-04-25T05:49:25;6.40;;;5.40;;
5060;SDS011;2549;52.128;21.068;2023-04-25T05:51:52;4.93;;;4.50;;
5060;SDS011;2549;52.128;21.068;2023-04-25T05:54:19;5.27;;;4.87;;
5060;SDS011;2549;52.128;21.068;2023-04-25T05:56:45;5.53;;;4.63;;
5060;SDS011;2549;52.128;21.068;2023-04-25T05:59:12;7.90;;;6.10;;
5060;SDS011;2549;52.128;21.068;2023-04-25T06:01:39;6.17;;;5.37;;
5060;SDS011;2549;52.128;21.068;2023-04-25T06:04:06;7.23;;;5.50;;
5060;SDS011;2549;52.128;21.068;2023-04-25T06:06:33;13.60;;;5.23;;
5060;SDS011;2549;52.128;21.068;2023-04-25T06:09:00;16.40;;;5.93;;
5060;SDS011;2549;52.128;21.068;2023-04-25T06:11:27;5.13;;;4.73;;
5060;SDS011;2549;52.128;21.068;2023-04-25T06:13:54;8.53;;;5.57;;
5060;SDS011;2549;52.128;21.068;2023-04-25T06:16:21;7.33;;;5.10;;
5060;SDS011;2549;52.128;21.068;2023-04-25T06:18:47;7.37;;;5.20;;
5060;SDS011;2549;52.128;21.068;2023-04-25T06:21:14;8.97;;;5.87;;
5060;SDS011;2549;52.128;21.068;2023-04-25T06:23:41;6.93;;;5.23;;
5060;SDS011;2549;52.128;21.068;2023-04-25T06:26:08;9.10;;;5.00;;
5060;SDS011;2549;52.128;21.068;2023-04-25T06:28:35;6.00;;;4.87;;
5060;SDS011;2549;52.128;21.068;2023-04-25T06:31:02;6.27;;;5.70;;
5060;SDS011;2549;52.128;21.068;2023-04-25T06:33:29;8.90;;;5.97;;
5060;SDS011;2549;52.128;21.068;2023-04-25T06:35:56;8.83;;;5.97;;
5060;SDS011;2549;52.128;21.068;2023-04-25T06:38:23;6.00;;;5.37;;
5060;SDS011;2549;52.128;21.068;2023-04-25T06:40:50;5.93;;;5.43;;
5060;SDS011;2549;52.128;21.068;2023-04-25T06:43:17;8.00;;;6.00;;
5060;SDS011;2549;52.128;21.068;2023-04-25T06:45:44;6.67;;;5.53;;
5060;SDS011;2549;52.128;21.068;2023-04-25T06:48:13;5.03;;;4.60;;
5060;SDS011;2549;52.128;21.068;2023-04-25T06:50:40;7.30;;;5.30;;
5060;SDS011;2549;52.128;21.068;2023-04-25T06:53:07;6.13;;;4.80;;
5060;SDS011;2549;52.128;21.068;2023-04-25T06:55:35;5.47;;;4.53;;
5060;SDS011;2549;52.128;21.068;2023-04-25T06:58:01;5.50;;;5.00;;
5060;SDS011;2549;52.128;21.068;2023-04-25T07:00:29;7.60;;;5.47;;
5060;SDS011;2549;52.128;21.068;2023-04-25T07:02:57;5.03;;;4.60;;
5060;SDS011;2549;52.128;21.068;2023-04-25T07:05:24;5.63;;;5.10;;
5060;SDS011;2549;52.128;21.068;2023-04-25T07:07:51;9.13;;;4.93;;
5060;SDS011;2549;52.128;21.068;2023-04-25T07:10:18;5.57;;;5.07;;
5060;SDS011;2549;52.128;21.068;2023-04-25T07:12:45;5.83;;;5.33;;
5060;SDS011;2549;52.128;21.068;2023-04-25T07:15:12;6.10;;;5.60;;
5060;SDS011;2549;52.128;21.068;2023-04-25T07:17:38;6.67;;;5.17;;
5060;SDS011;2549;52.128;21.068;2023-04-25T07:20:05;5.53;;;4.97;;
5060;SDS011;2549;52.128;21.068;2023-04-25T07:22:33;5.87;;;5.30;;
5060;SDS011;2549;52.128;21.068;2023-04-25T07:25:00;8.63;;;4.93;;
5060;SDS011;2549;52.128;21.068;2023-04-25T07:27:27;5.70;;;5.20;;
5060;SDS011;2549;52.128;21.068;2023-04-25T07:29:54;5.77;;;5.27;;
5060;SDS011;2549;52.128;21.068;2023-04-25T07:32:21;5.37;;;4.90;;
5060;SDS011;2549;52.128;21.068;2023-04-25T07:34:48;13.40;;;4.77;;
5060;SDS011;2549;52.128;21.068;2023-04-25T07:37:15;5.70;;;4.70;;
5060;SDS011;2549;52.128;21.068;2023-04-25T07:39:41;4.93;;;4.47;;
5060;SDS011;2549;52.128;21.068;2023-04-25T07:42:08;9.27;;;4.90;;
5060;SDS011;2549;52.128;21.068;2023-04-25T07:44:35;4.30;;;3.93;;
5060;SDS011;2549;52.128;21.068;2023-04-25T07:47:14;4.57;;;3.87;;
5060;SDS011;2549;52.128;21.068;2023-04-25T07:49:41;4.90;;;4.17;;
5060;SDS011;2549;52.128;21.068;2023-04-25T07:52:08;4.03;;;3.73;;
5060;SDS011;2549;52.128;21.068;2023-04-25T07:54:35;5.10;;;4.40;;
5060;SDS011;2549;52.128;21.068;2023-04-25T07:57:02;7.10;;;4.70;;
5060;SDS011;2549;52.128;21.068;2023-04-25T07:59:29;4.00;;;3.70;;
5060;SDS011;2549;52.128;21.068;2023-04-25T08:01:56;8.80;;;4.37;;
5060;SDS011;2549;52.128;21.068;2023-04-25T08:04:24;4.13;;;3.83;;
5060;SDS011;2549;52.128;21.068;2023-04-25T08:06:52;6.27;;;4.57;;
5060;SDS011;2549;52.128;21.068;2023-04-25T08:09:20;5.33;;;4.27;;
5060;SDS011;2549;52.128;21.068;2023-04-25T08:11:47;6.53;;;5.07;;
5060;SDS011;2549;52.128;21.068;2023-04-25T08:14:14;5.97;;;5.10;;
5060;SDS011;2549;52.128;21.068;2023-04-25T08:16:41;5.50;;;4.70;;
5060;SDS011;2549;52.128;21.068;2023-04-25T08:19:08;4.30;;;4.00;;
5060;SDS011;2549;52.128;21.068;2023-04-25T08:21:37;3.60;;;3.23;;
5060;SDS011;2549;52.128;21.068;2023-04-25T08:24:04;4.33;;;3.93;;
5060;SDS011;2549;52.128;21.068;2023-04-25T08:26:31;4.73;;;4.20;;
5060;SDS011;2549;52.128;21.068;2023-04-25T08:28:58;3.90;;;2.80;;
5060;SDS011;2549;52.128;21.068;2023-04-25T08:31:25;3.00;;;2.80;;
5060;SDS011;2549;52.128;21.068;2023-04-25T08:33:52;2.97;;;2.77;;
5060;SDS011;2549;52.128;21.068;2023-04-25T08:36:18;4.37;;;3.50;;
5060;SDS011;2549;52.128;21.068;2023-04-25T08:39:03;3.30;;;3.10;;
5060;SDS011;2549;52.128;21.068;2023-04-25T08:41:30;4.03;;;3.63;;
5060;SDS011;2549;52.128;21.068;2023-04-25T08:43:57;3.37;;;2.93;;
5060;SDS011;2549;52.128;21.068;2023-04-25T08:46:26;3.37;;;3.17;;
5060;SDS011;2549;52.128;21.068;2023-04-25T08:48:54;3.37;;;3.07;;
5060;SDS011;2549;52.128;21.068;2023-04-25T08:51:26;3.33;;;3.13;;
5060;SDS011;2549;52.128;21.068;2023-04-25T08:53:57;3.40;;;2.90;;
5060;SDS011;2549;52.128;21.068;2023-04-25T08:56:56;3.50;;;3.20;;
5060;SDS011;2549;52.128;21.068;2023-04-25T08:59:28;10.87;;;4.20;;
5060;SDS011;2549;52.128;21.068;2023-04-25T09:01:55;3.20;;;3.00;;
5060;SDS011;2549;52.128;21.068;2023-04-25T09:04:23;3.07;;;2.77;;
5060;SDS011;2549;52.128;21.068;2023-04-25T09:06:50;5.03;;;3.47;;
5060;SDS011;2549;52.128;21.068;2023-04-25T09:09:17;4.30;;;4.00;;
5060;SDS011;2549;52.128;21.068;2023-04-25T09:11:44;3.43;;;3.23;;
5060;SDS011;2549;52.128;21.068;2023-04-25T09:14:22;3.53;;;3.27;;
5060;SDS011;2549;52.128;21.068;2023-04-25T09:19:29;3.83;;;3.63;;
5060;SDS011;2549;52.128;21.068;2023-04-25T09:22:07;4.00;;;3.70;;
5060;SDS011;2549;52.128;21.068;2023-04-25T09:24:35;3.90;;;3.70;;
5060;SDS011;2549;52.128;21.068;2023-04-25T09:27:20;4.30;;;4.00;;
5060;SDS011;2549;52.128;21.068;2023-04-25T09:29:56;3.90;;;3.60;;
5060;SDS011;2549;52.128;21.068;2023-04-25T09:32:24;3.80;;;3.50;;
5060;SDS011;2549;52.128;21.068;2023-04-25T09:34:53;3.83;;;2.93;;
5060;SDS011;2549;52.128;21.068;2023-04-25T09:39:49;3.53;;;3.23;;
5060;SDS011;2549;52.128;21.068;2023-04-25T09:42:17;7.80;;;3.13;;
5060;SDS011;2549;52.128;21.068;2023-04-25T09:44:47;3.77;;;3.50;;
5060;SDS011;2549;52.128;21.068;2023-04-25T09:47:14;13.80;;;3.50;;
5060;SDS011;2549;52.128;21.068;2023-04-25T09:49:44;3.50;;;3.30;;
5060;SDS011;2549;52.128;21.068;2023-04-25T09:52:15;2.97;;;2.87;;
5060;SDS011;2549;52.128;21.068;2023-04-25T09:54:44;4.00;;;3.23;;
5060;SDS011;2549;52.128;21.068;2023-04-25T10:02:13;4.80;;;4.23;;
5060;SDS011;2549;52.128;21.068;2023-04-25T10:04:42;4.47;;;4.07;;
5060;SDS011;2549;52.128;21.068;2023-04-25T10:07:13;4.20;;;3.83;;
5060;SDS011;2549;52.128;21.068;2023-04-25T10:09:41;4.53;;;4.13;;
5060;SDS011;2549;52.128;21.068;2023-04-25T10:12:09;5.83;;;4.40;;
5060;SDS011;2549;52.128;21.068;2023-04-25T10:14:36;4.30;;;3.90;;
5060;SDS011;2549;52.128;21.068;2023-04-25T10:17:04;4.30;;;4.00;;
5060;SDS011;2549;52.128;21.068;2023-04-25T10:19:32;4.40;;;4.00;;
5060;SDS011;2549;52.128;21.068;2023-04-25T10:22:11;4.33;;;3.73;;
5060;SDS011;2549;52.128;21.068;2023-04-25T10:24:57;4.87;;;4.47;;
5060;SDS011;2549;52.128;21.068;2023-04-25T10:27:26;5.53;;;4.90;;
5060;SDS011;2549;52.128;21.068;2023-04-25T10:30:03;4.97;;;4.57;;
5060;SDS011;2549;52.128;21.068;2023-04-25T10:32:38;4.13;;;3.87;;
5060;SDS011;2549;52.128;21.068;2023-04-25T10:35:11;3.73;;;3.43;;
5060;SDS011;2549;52.128;21.068;2023-04-25T10:37:38;4.30;;;3.80;;
5060;SDS011;2549;52.128;21.068;2023-04-25T10:40:22;5.33;;;4.53;;
5060;SDS011;2549;52.128;21.068;2023-04-25T10:42:51;5.20;;;4.70;;
5060;SDS011;2549;52.128;21.068;2023-04-25T10:45:19;4.57;;;4.17;;
5060;SDS011;2549;52.128;21.068;2023-04-25T10:47:46;4.90;;;4.50;;
5060;SDS011;2549;52.128;21.068;2023-04-25T10:50:14;4.83;;;4.37;;
5060;SDS011;2549;52.128;21.068;2023-04-25T10:52:44;3.90;;;3.70;;
5060;SDS011;2549;52.128;21.068;2023-04-25T10:55:11;4.80;;;4.50;;
5060;SDS011;2549;52.128;21.068;2023-04-25T11:02:40;5.20;;;4.00;;
5060;SDS011;2549;52.128;21.068;2023-04-25T11:07:49;24.17;;;4.13;;
5060;SDS011;2549;52.128;21.068;2023-04-25T11:10:32;5.00;;;4.50;;
5060;SDS011;2549;52.128;21.068;2023-04-25T11:13:02;4.17;;;3.87;;
5060;SDS011;2549;52.128;21.068;2023-04-25T11:15:30;4.70;;;4.20;;
5060;SDS011;2549;52.128;21.068;2023-04-25T11:17:57;4.43;;;4.03;;
5060;SDS011;2549;52.128;21.068;2023-04-25T11:20:25;4.63;;;4.23;;
5060;SDS011;2549;52.128;21.068;2023-04-25T11:22:54;5.40;;;4.30;;
5060;SDS011;2549;52.128;21.068;2023-04-25T11:25:25;6.20;;;4.33;;
5060;SDS011;2549;52.128;21.068;2023-04-25T11:27:52;3.80;;;3.50;;
5060;SDS011;2549;52.128;21.068;2023-04-25T11:30:24;4.40;;;4.03;;
5060;SDS011;2549;52.128;21.068;2023-04-25T11:32:52;4.17;;;3.70;;
5060;SDS011;2549;52.128;21.068;2023-04-25T11:35:22;4.33;;;3.93;;
5060;SDS011;2549;52.128;21.068;2023-04-25T11:37:49;5.73;;;4.00;;
5060;SDS011;2549;52.128;21.068;2023-04-25T11:40:16;3.80;;;3.43;;
5060;SDS011;2549;52.128;21.068;2023-04-25T11:42:45;3.97;;;3.67;;
5060;SDS011;2549;52.128;21.068;2023-04-25T11:45:13;4.00;;;3.60;;
5060;SDS011;2549;52.128;21.068;2023-04-25T11:47:41;9.47;;;4.87;;
5060;SDS011;2549;52.128;21.068;2023-04-25T11:50:08;4.47;;;4.17;;
5060;SDS011;2549;52.128;21.068;2023-04-25T11:52:43;8.70;;;4.67;;
5060;SDS011;2549;52.128;21.068;2023-04-25T11:55:15;3.50;;;3.30;;
5060;SDS011;2549;52.128;21.068;2023-04-25T11:57:47;4.50;;;4.10;;
5060;SDS011;2549;52.128;21.068;2023-04-25T12:00:19;6.67;;;4.10;;
5060;SDS011;2549;52.128;21.068;2023-04-25T12:02:50;5.80;;;3.87;;
5060;SDS011;2549;52.128;21.068;2023-04-25T12:05:19;4.77;;;4.30;;
5060;SDS011;2549;52.128;21.068;2023-04-25T12:07:52;5.90;;;5.40;;
5060;SDS011;2549;52.128;21.068;2023-04-25T12:10:19;6.17;;;4.57;;
5060;SDS011;2549;52.128;21.068;2023-04-25T12:12:46;3.93;;;3.60;;
5060;SDS011;2549;52.128;21.068;2023-04-25T12:15:33;4.50;;;3.60;;
5060;SDS011;2549;52.128;21.068;2023-04-25T12:18:00;6.73;;;4.03;;
5060;SDS011;2549;52.128;21.068;2023-04-25T12:20:28;4.63;;;4.10;;
5060;SDS011;2549;52.128;21.068;2023-04-25T12:22:58;6.43;;;3.93;;
5060;SDS011;2549;52.128;21.068;2023-04-25T12:28:12;4.70;;;3.97;;
5060;SDS011;2549;52.128;21.068;2023-04-25T12:31:02;3.87;;;3.63;;
5060;SDS011;2549;52.128;21.068;2023-04-25T12:33:34;3.83;;;3.50;;
5060;SDS011;2549;52.128;21.068;2023-04-25T12:36:03;3.60;;;3.30;;
5060;SDS011;2549;52.128;21.068;2023-04-25T12:38:36;3.77;;;2.93;;
5060;SDS011;2549;52.128;21.068;2023-04-25T12:41:04;3.37;;;3.07;;
5060;SDS011;2549;52.128;21.068;2023-04-25T12:43:32;3.07;;;2.87;;
5060;SDS011;2549;52.128;21.068;2023-04-25T12:45:59;3.40;;;3.10;;
5060;SDS011;2549;52.128;21.068;2023-04-25T12:48:26;2.93;;;2.73;;
5060;SDS011;2549;52.128;21.068;2023-04-25T12:50:53;4.20;;;3.00;;
5060;SDS011;2549;52.128;21.068;2023-04-25T12:53:21;5.10;;;3.70;;
5060;SDS011;2549;52.128;21.068;2023-04-25T12:55:49;3.20;;;3.00;;
5060;SDS011;2549;52.128;21.068;2023-04-25T12:58:17;4.07;;;3.10;;
5060;SDS011;2549;52.128;21.068;2023-04-25T13:00:45;7.50;;;3.10;;
5060;SDS011;2549;52.128;21.068;2023-04-25T13:03:12;3.40;;;3.20;;
5060;SDS011;2549;52.128;21.068;2023-04-25T13:05:40;4.17;;;3.87;;
5060;SDS011;2549;52.128;21.068;2023-04-25T13:08:07;3.57;;;3.30;;
5060;SDS011;2549;52.128;21.068;2023-04-25T13:10:34;3.83;;;3.50;;
5060;SDS011;2549;52.128;21.068;2023-04-25T13:13:02;5.27;;;3.73;;
5060;SDS011;2549;52.128;21.068;2023-04-25T13:15:29;3.00;;;2.70;;
5060;SDS011;2549;52.128;21.068;2023-04-25T13:17:56;3.60;;;3.17;;
5060;SDS011;2549;52.128;21.068;2023-04-25T13:20:23;4.00;;;3.50;;
5060;SDS011;2549;52.128;21.068;2023-04-25T13:22:49;3.60;;;3.30;;
5060;SDS011;2549;52.128;21.068;2023-04-25T13:25:16;3.50;;;3.30;;
5060;SDS011;2549;52.128;21.068;2023-04-25T13:27:43;4.00;;;3.70;;
5060;SDS011;2549;52.128;21.068;2023-04-25T13:30:11;3.73;;;3.43;;
5060;SDS011;2549;52.128;21.068;2023-04-25T13:32:38;3.93;;;3.63;;
5060;SDS011;2549;52.128;21.068;2023-04-25T13:35:14;2.93;;;2.83;;
5060;SDS011;2549;52.128;21.068;2023-04-25T13:37:41;4.60;;;2.77;;
5060;SDS011;2549;52.128;21.068;2023-04-25T13:40:09;3.40;;;3.10;;
5060;SDS011;2549;52.128;21.068;2023-04-25T13:42:37;3.03;;;2.73;;
5060;SDS011;2549;52.128;21.068;2023-04-25T13:45:05;2.67;;;2.47;;
5060;SDS011;2549;52.128;21.068;2023-04-25T13:47:33;2.30;;;2.20;;
5060;SDS011;2549;52.128;21.068;2023-04-25T13:50:00;3.03;;;2.87;;
5060;SDS011;2549;52.128;21.068;2023-04-25T13:52:29;2.90;;;2.70;;
5060;SDS011;2549;52.128;21.068;2023-04-25T13:54:56;3.73;;;2.63;;
5060;SDS011;2549;52.128;21.068;2023-04-25T13:57:23;3.13;;;2.93;;
5060;SDS011;2549;52.128;21.068;2023-04-25T13:59:50;4.10;;;3.37;;
5060;SDS011;2549;52.128;21.068;2023-04-25T14:02:18;4.43;;;4.03;;
5060;SDS011;2549;52.128;21.068;2023-04-25T14:04:45;3.93;;;3.43;;
5060;SDS011;2549;52.128;21.068;2023-04-25T14:07:12;3.10;;;2.90;;
5060;SDS011;2549;52.128;21.068;2023-04-25T14:09:42;3.63;;;3.43;;
5060;SDS011;2549;52.128;21.068;2023-04-25T14:12:09;4.00;;;3.20;;
5060;SDS011;2549;52.128;21.068;2023-04-25T14:14:36;3.60;;;3.40;;
5060;SDS011;2549;52.128;21.068;2023-04-25T14:17:03;4.40;;;4.00;;
5060;SDS011;2549;52.128;21.068;2023-04-25T14:19:30;3.60;;;3.40;;
5060;SDS011;2549;52.128;21.068;2023-04-25T14:21:57;4.30;;;3.70;;
5060;SDS011;2549;52.128;21.068;2023-04-25T14:24:23;3.93;;;3.63;;
5060;SDS011;2549;52.128;21.068;2023-04-25T14:26:51;4.27;;;3.97;;
5060;SDS011;2549;52.128;21.068;2023-04-25T14:29:18;4.20;;;3.80;;
5060;SDS011;2549;52.128;21.068;2023-04-25T14:31:44;3.60;;;3.30;;
5060;SDS011;2549;52.128;21.068;2023-04-25T14:34:11;4.07;;;3.60;;
5060;SDS011;2549;52.128;21.068;2023-04-25T14:36:38;3.53;;;3.20;;
5060;SDS011;2549;52.128;21.068;2023-04-25T14:39:05;4.83;;;4.17;;
5060;SDS011;2549;52.128;21.068;2023-04-25T14:41:32;3.80;;;3.43;;
5060;SDS011;2549;52.128;21.068;2023-04-25T14:43:59;4.07;;;3.73;;
5060;SDS011;2549;52.128;21.068;2023-04-25T14:46:26;5.50;;;5.00;;
5060;SDS011;2549;52.128;21.068;2023-04-25T14:48:53;4.17;;;3.67;;
5060;SDS011;2549;52.128;21.068;2023-04-25T14:51:22;6.47;;;4.53;;
5060;SDS011;2549;52.128;21.068;2023-04-25T14:53:48;3.70;;;3.40;;
5060;SDS011;2549;52.128;21.068;2023-04-25T14:56:17;4.00;;;3.70;;
5060;SDS011;2549;52.128;21.068;2023-04-25T14:58:47;3.80;;;3.47;;
5060;SDS011;2549;52.128;21.068;2023-04-25T15:01:14;7.07;;;4.10;;
5060;SDS011;2549;52.128;21.068;2023-04-25T15:03:40;4.40;;;3.57;;
5060;SDS011;2549;52.128;21.068;2023-04-25T15:06:08;5.40;;;4.90;;
5060;SDS011;2549;52.128;21.068;2023-04-25T15:08:35;11.33;;;4.00;;
5060;SDS011;2549;52.128;21.068;2023-04-25T15:11:02;4.57;;;4.03;;
5060;SDS011;2549;52.128;21.068;2023-04-25T15:13:29;3.83;;;3.47;;
5060;SDS011;2549;52.128;21.068;2023-04-25T15:15:56;4.23;;;3.93;;
5060;SDS011;2549;52.128;21.068;2023-04-25T15:18:23;4.63;;;3.93;;
5060;SDS011;2549;52.128;21.068;2023-04-25T15:20:50;9.43;;;4.87;;
5060;SDS011;2549;52.128;21.068;2023-04-25T15:23:18;4.67;;;4.20;;
5060;SDS011;2549;52.128;21.068;2023-04-25T15:25:46;5.10;;;3.83;;
5060;SDS011;2549;52.128;21.068;2023-04-25T15:28:13;6.10;;;4.63;;